Time;durP1;ratioP1;P1;durP2;ratioP2;P2;SDS_P1;SDS_P2;PMS_P1;PMS_P2;Temp;Humidity;BMP_temperature;BMP_pressure;BME280_temperature;BME280_humidity;BME280_pressure;Samples;Min_cycle;Max_cycle;Signal;HPM_P1;HPM_P2
2023/05/05 00:01:12;;;;;;;11.93;3.97;;;13.30;99.90;;;;;;5033103;28;20641;-70
2023/05/05 00:03:38;;;;;;;12.30;2.80;;;13.30;99.90;;;;;;5032482;28;20611;-69
2023/05/05 00:06:06;;;;;;;13.10;3.25;;;13.30;99.90;;;;;;5031840;28;20650;-68
2023/05/05 00:08:32;;;;;;;10.80;3.58;;;13.30;99.90;;;;;;5031636;28;20257;-68
2023/05/05 00:10:58;;;;;;;13.38;3.40;;;13.30;99.90;;;;;;5032437;28;20185;-69
2023/05/05 00:13:24;;;;;;;8.80;3.08;;;13.30;99.90;;;;;;5032108;28;20659;-69
2023/05/05 00:15:52;;;;;;;11.07;3.33;;;13.00;99.90;;;;;;5032564;28;20178;-69
2023/05/05 00:18:19;;;;;;;12.23;3.70;;;13.30;99.90;;;;;;5031900;28;20591;-69
2023/05/05 00:20:46;;;;;;;11.83;3.97;;;13.30;99.90;;;;;;5031876;28;20665;-69
2023/05/05 00:23:12;;;;;;;12.63;3.57;;;13.30;99.90;;;;;;5030643;28;20305;-70
2023/05/05 00:25:38;;;;;;;11.53;3.07;;;13.20;99.90;;;;;;5032019;28;20166;-70
2023/05/05 00:28:04;;;;;;;11.45;3.80;;;13.20;99.90;;;;;;5031937;28;20162;-70
2023/05/05 00:30:30;;;;;;;13.85;4.50;;;13.20;99.90;;;;;;5031183;28;20524;-69
2023/05/05 00:32:56;;;;;;;13.55;3.70;;;13.30;99.90;;;;;;5032127;28;20181;-69
2023/05/05 00:35:22;;;;;;;9.67;3.60;;;13.30;99.90;;;;;;5014616;28;20174;-70
2023/05/05 00:37:48;;;;;;;9.63;3.65;;;13.30;99.90;;;;;;5031777;28;20170;-70
2023/05/05 00:40:14;;;;;;;11.57;3.40;;;13.20;99.90;;;;;;5031614;28;20189;-70
2023/05/05 00:42:45;;;;;;;11.23;3.30;;;13.30;99.90;;;;;;5031543;28;20644;-68
2023/05/05 00:45:13;;;;;;;8.37;3.20;;;13.30;99.90;;;;;;5031263;28;20210;-69
2023/05/05 00:47:41;;;;;;;13.90;3.85;;;13.40;99.90;;;;;;5031804;28;20197;-69
2023/05/05 00:50:08;;;;;;;13.30;3.22;;;;;;;;;;5024073;28;20170;-69
2023/05/05 00:52:37;;;;;;;10.00;3.10;;;13.40;99.90;;;;;;5022572;28;20193;-69
2023/05/05 00:55:07;;;;;;;10.93;3.35;;;13.40;99.90;;;;;;5029685;28;20190;-69
2023/05/05 00:57:34;;;;;;;11.27;3.47;;;13.40;99.90;;;;;;5029648;28;20175;-69
2023/05/05 01:00:01;;;;;;;12.27;3.30;;;13.40;99.90;;;;;;5030914;28;20657;-71
2023/05/05 01:02:27;;;;;;;11.63;3.20;;;13.40;99.90;;;;;;5029764;28;20269;-69
2023/05/05 01:04:54;;;;;;;7.90;3.30;;;13.40;99.90;;;;;;5029802;28;20249;-69
2023/05/05 01:07:29;;;;;;;11.32;3.38;;;13.40;99.90;;;;;;5030389;28;20257;-69
2023/05/05 01:10:23;;;;;;;10.50;3.33;;;13.50;99.90;;;;;;5030936;28;20181;-69
2023/05/05 01:13:15;;;;;;;14.10;3.95;;;13.40;99.90;;;;;;5030754;28;20166;-69
2023/05/05 01:15:57;;;;;;;10.40;3.57;;;13.40;99.90;;;;;;5012881;28;20174;-70
2023/05/05 01:18:29;;;;;;;7.88;2.85;;;13.40;99.90;;;;;;5012989;28;20198;-69
2023/05/05 01:21:04;;;;;;;9.00;2.40;;;13.30;99.90;;;;;;5029533;28;20170;-69
2023/05/05 01:23:47;;;;;;;7.30;2.60;;;13.20;99.90;;;;;;5030811;28;20303;-69
2023/05/05 01:26:31;;;;;;;8.37;2.77;;;13.20;99.90;;;;;;5030491;28;20186;-69
2023/05/05 01:29:16;;;;;;;9.50;2.90;;;13.20;99.90;;;;;;5030594;28;20406;-69
2023/05/05 01:31:41;;;;;;;11.70;2.60;;;13.10;99.90;;;;;;5031184;28;20174;-69
2023/05/05 01:34:11;;;;;;;10.57;2.28;;;13.10;99.90;;;;;;5030755;28;20236;-69
2023/05/05 01:36:41;;;;;;;8.90;2.63;;;13.10;99.90;;;;;;5030674;28;20648;-69
2023/05/05 01:39:11;;;;;;;6.88;2.55;;;13.10;99.90;;;;;;5031122;28;20217;-68
2023/05/05 01:41:40;;;;;;;6.07;2.05;;;13.00;99.90;;;;;;5029610;28;20162;-68
2023/05/05 01:44:08;;;;;;;12.00;2.83;;;13.00;99.90;;;;;;5030109;28;20276;-70
2023/05/05 01:46:35;;;;;;;14.40;2.83;;;13.00;99.90;;;;;;5030939;28;20548;-70
2023/05/05 01:49:02;;;;;;;13.40;2.60;;;13.00;99.90;;;;;;5030055;28;20182;-70
2023/05/05 01:51:29;;;;;;;10.15;2.50;;;12.90;99.90;;;;;;5030497;28;20636;-70
2023/05/05 01:53:59;;;;;;;8.13;1.97;;;12.90;99.90;;;;;;5029782;28;20174;-70
2023/05/05 01:56:25;;;;;;;10.03;2.60;;;12.80;99.90;;;;;;5012700;28;20182;-69
2023/05/05 01:58:53;;;;;;;7.90;2.03;;;12.80;99.90;;;;;;5030841;28;20206;-70
2023/05/05 02:01:21;;;;;;;11.90;2.50;;;12.80;99.90;;;;;;5030373;28;20174;-70
2023/05/05 02:03:50;;;;;;;9.50;2.60;;;12.70;99.90;;;;;;5030611;28;20648;-70
2023/05/05 02:06:18;;;;;;;8.27;2.97;;;12.70;99.90;;;;;;5029334;28;20183;-70
2023/05/05 02:08:44;;;;;;;12.13;3.27;;;12.70;99.90;;;;;;5029142;28;20394;-70
2023/05/05 02:11:11;;;;;;;13.97;3.30;;;12.60;99.90;;;;;;5029774;28;20197;-70
2023/05/05 02:13:40;;;;;;;14.47;2.60;;;12.60;99.90;;;;;;5029489;28;20189;-70
2023/05/05 02:16:07;;;;;;;10.48;2.90;;;12.60;99.90;;;;;;5029857;28;20181;-70
2023/05/05 02:18:34;;;;;;;13.47;3.20;;;12.50;99.90;;;;;;5030000;28;20212;-69
2023/05/05 02:21:01;;;;;;;10.77;2.60;;;12.50;99.90;;;;;;5029391;28;20178;-69
2023/05/05 02:23:27;;;;;;;10.07;3.00;;;12.50;99.90;;;;;;5030249;28;20616;-69
2023/05/05 02:25:58;;;;;;;13.10;2.93;;;12.50;99.90;;;;;;5030371;28;20260;-69
2023/05/05 02:28:55;;;;;;;13.60;2.57;;;12.50;99.90;;;;;;5029508;28;20162;-69
2023/05/05 02:31:26;;;;;;;11.33;2.90;;;12.40;99.90;;;;;;5028899;28;20229;-69
2023/05/05 02:33:54;;;;;;;11.83;3.03;;;12.40;99.90;;;;;;5030663;28;20177;-70
2023/05/05 02:36:24;;;;;;;11.33;3.33;;;12.40;99.90;;;;;;5029929;28;20316;-70
2023/05/05 02:38:56;;;;;;;13.87;3.10;;;12.40;99.90;;;;;;5030236;28;20209;-69
2023/05/05 02:41:25;;;;;;;12.13;2.87;;;12.30;99.90;;;;;;5030220;28;20212;-70
2023/05/05 02:43:53;;;;;;;9.53;2.93;;;12.30;99.90;;;;;;5029884;28;20185;-69
2023/05/05 02:46:19;;;;;;;12.07;2.80;;;12.20;99.90;;;;;;5031874;28;20181;-70
2023/05/05 02:48:45;;;;;;;15.70;3.83;;;12.20;99.90;;;;;;5031840;28;20170;-69
2023/05/05 02:51:10;;;;;;;13.97;3.27;;;12.20;99.90;;;;;;5022521;28;20177;-69
2023/05/05 02:53:36;;;;;;;13.20;3.80;;;12.20;99.90;;;;;;5034083;28;20174;-69
2023/05/05 02:56:20;;;;;;;13.27;3.53;;;12.10;99.90;;;;;;5020743;28;20265;-69
2023/05/05 02:58:55;;;;;;;12.77;3.20;;;12.10;99.90;;;;;;5021171;28;20224;-70
2023/05/05 03:01:45;;;;;;;11.27;3.47;;;12.10;99.90;;;;;;5033665;28;20677;-70
2023/05/05 03:04:21;;;;;;;20.40;3.43;;;12.10;99.90;;;;;;5032576;28;20740;-70
2023/05/05 03:06:48;;;;;;;14.63;3.70;;;12.10;99.90;;;;;;5033066;28;20176;-70
2023/05/05 03:09:29;;;;;;;17.27;3.97;;;12.10;99.90;;;;;;5032600;28;20174;-70
2023/05/05 03:12:00;;;;;;;14.93;3.30;;;12.10;99.90;;;;;;5031958;28;20173;-70
2023/05/05 03:14:28;;;;;;;10.70;2.97;;;12.20;99.90;;;;;;5032577;28;20504;-70
2023/05/05 03:16:55;;;;;;;19.43;3.27;;;12.20;99.90;;;;;;5031569;28;20597;-70
2023/05/05 03:19:23;;;;;;;15.97;3.40;;;12.20;99.90;;;;;;5032742;28;20632;-70
2023/05/05 03:21:49;;;;;;;18.33;3.93;;;12.20;99.90;;;;;;5031750;28;20752;-70
2023/05/05 03:24:16;;;;;;;16.37;3.70;;;12.10;99.90;;;;;;5031769;28;20281;-70
2023/05/05 03:26:44;;;;;;;16.83;3.13;;;12.10;99.90;;;;;;5031159;28;20189;-70
2023/05/05 03:29:10;;;;;;;14.37;3.60;;;12.10;99.90;;;;;;5013427;28;20200;-69
2023/05/05 03:31:35;;;;;;;14.30;3.33;;;12.10;99.90;;;;;;5031636;28;20636;-70
2023/05/05 03:34:01;;;;;;;17.43;3.27;;;12.10;99.90;;;;;;5031832;28;20645;-68
2023/05/05 03:36:27;;;;;;;14.57;3.70;;;12.10;99.90;;;;;;5032700;28;20173;-69
2023/05/05 03:38:52;;;;;;;16.03;3.43;;;12.10;99.90;;;;;;5032022;28;20312;-68
2023/05/05 03:41:20;;;;;;;15.73;3.53;;;12.10;99.90;;;;;;5032076;28;20216;-68
2023/05/05 03:43:46;;;;;;;14.13;3.40;;;12.10;99.90;;;;;;5014504;28;20182;-68
2023/05/05 03:46:11;;;;;;;22.40;4.03;;;12.10;99.90;;;;;;5031547;28;20588;-68
2023/05/05 03:48:37;;;;;;;14.07;4.33;;;12.00;99.90;;;;;;5031243;28;20204;-68
2023/05/05 03:51:03;;;;;;;19.43;4.07;;;12.00;99.90;;;;;;5031279;28;20178;-68
2023/05/05 03:53:28;;;;;;;14.40;3.77;;;12.00;99.90;;;;;;5031343;28;20169;-68
2023/05/05 03:55:54;;;;;;;14.93;3.93;;;12.00;99.90;;;;;;5030729;28;20192;-68
2023/05/05 03:58:20;;;;;;;15.67;3.70;;;12.10;99.90;;;;;;5031629;28;20247;-68
2023/05/05 04:00:45;;;;;;;13.60;3.50;;;12.00;99.90;;;;;;5032329;28;20189;-68
2023/05/05 04:03:11;;;;;;;16.37;3.20;;;12.00;99.90;;;;;;5032070;28;20331;-69
2023/05/05 04:05:36;;;;;;;15.80;3.33;;;12.00;99.90;;;;;;5032005;28;20189;-69
2023/05/05 04:08:02;;;;;;;16.17;3.47;;;12.00;99.90;;;;;;5031758;28;20692;-68
2023/05/05 04:10:28;;;;;;;16.10;3.33;;;11.90;99.90;;;;;;5031422;28;20184;-68
2023/05/05 04:12:54;;;;;;;15.07;3.37;;;11.90;99.90;;;;;;5031199;28;20319;-68
2023/05/05 04:15:20;;;;;;;17.63;3.50;;;11.90;99.90;;;;;;5031433;28;20285;-68
2023/05/05 04:17:46;;;;;;;19.23;3.53;;;12.00;99.90;;;;;;5013039;28;20584;-68
2023/05/05 04:20:12;;;;;;;17.73;3.40;;;11.90;99.90;;;;;;5030869;28;20756;-68
2023/05/05 04:22:38;;;;;;;18.80;3.63;;;;;;;;;;5029449;28;20218;-68
2023/05/05 04:25:04;;;;;;;20.70;3.87;;;12.00;99.90;;;;;;5031488;28;20176;-68
2023/05/05 04:27:29;;;;;;;19.97;3.77;;;12.00;99.90;;;;;;5030738;28;20186;-68
2023/05/05 04:29:58;;;;;;;17.33;3.93;;;12.00;99.90;;;;;;5031506;28;20170;-67
2023/05/05 04:32:23;;;;;;;18.13;3.50;;;12.10;99.90;;;;;;5031116;28;20820;-67
2023/05/05 04:34:49;;;;;;;19.10;3.57;;;12.00;99.90;;;;;;5031603;28;20183;-71
2023/05/05 04:37:15;;;;;;;17.20;4.33;;;12.00;99.90;;;;;;5013408;28;20181;-72
2023/05/05 04:39:40;;;;;;;14.20;3.47;;;12.00;99.90;;;;;;5030961;28;20710;-71
2023/05/05 04:42:06;;;;;;;12.33;3.73;;;12.00;99.90;;;;;;5031453;28;20699;-70
2023/05/05 04:44:35;;;;;;;15.43;4.17;;;12.00;99.90;;;;;;5030817;28;20181;-71
2023/05/05 04:47:01;;;;;;;16.43;4.43;;;12.00;99.90;;;;;;5030596;28;20162;-71
2023/05/05 04:49:30;;;;;;;11.67;3.53;;;12.00;99.90;;;;;;5031200;28;20181;-70
2023/05/05 04:51:55;;;;;;;14.10;4.40;;;12.00;99.90;;;;;;5030410;28;20205;-70
2023/05/05 04:54:21;;;;;;;14.27;4.43;;;12.00;99.90;;;;;;5030739;28;20719;-70
2023/05/05 04:56:47;;;;;;;21.77;4.60;;;12.00;99.90;;;;;;5031540;28;20263;-70
2023/05/05 04:59:15;;;;;;;21.80;4.87;;;12.00;99.90;;;;;;5028099;28;20228;-69
2023/05/05 05:01:41;;;;;;;18.40;4.30;;;12.10;99.90;;;;;;5020676;28;20227;-69
2023/05/05 05:04:09;;;;;;;14.43;4.17;;;12.10;99.90;;;;;;5031303;28;20252;-69
2023/05/05 05:06:34;;;;;;;17.80;4.27;;;12.20;99.90;;;;;;5015584;28;20244;-70
2023/05/05 05:09:00;;;;;;;16.37;4.37;;;12.20;99.90;;;;;;5011270;28;20253;-69
2023/05/05 05:11:26;;;;;;;12.83;4.03;;;13.00;99.90;;;;;;5010818;28;20167;-69
2023/05/05 05:13:52;;;;;;;17.30;4.37;;;12.30;99.90;;;;;;5011508;28;20584;-70
2023/05/05 05:16:17;;;;;;;13.00;5.00;;;12.30;99.90;;;;;;5022189;28;20174;-71
2023/05/05 05:18:43;;;;;;;14.37;3.90;;;12.40;99.90;;;;;;5030556;28;20197;-69
2023/05/05 05:21:09;;;;;;;25.07;4.90;;;12.40;99.90;;;;;;5030346;28;20537;-70
2023/05/05 05:23:34;;;;;;;17.80;4.47;;;12.50;99.90;;;;;;5030914;28;20190;-70
2023/05/05 05:26:00;;;;;;;16.10;4.47;;;12.60;99.90;;;;;;5030996;28;20624;-69
2023/05/05 05:28:26;;;;;;;11.63;3.72;;;12.60;99.90;;;;;;5030698;28;20166;-69
2023/05/05 05:30:52;;;;;;;12.50;4.20;;;12.60;99.90;;;;;;5030784;28;20185;-69
2023/05/05 05:33:18;;;;;;;12.57;4.05;;;12.70;99.90;;;;;;5031190;28;20189;-67
2023/05/05 05:35:44;;;;;;;16.38;4.45;;;12.70;99.90;;;;;;5031239;28;20170;-69
2023/05/05 05:38:10;;;;;;;14.73;4.60;;;12.70;99.90;;;;;;5030001;28;20189;-69
2023/05/05 05:40:36;;;;;;;15.25;4.13;;;12.80;99.90;;;;;;5030775;28;20645;-70
2023/05/05 05:43:02;;;;;;;17.60;5.22;;;12.80;99.90;;;;;;5029833;28;20208;-68
2023/05/05 05:45:28;;;;;;;11.75;4.60;;;12.90;99.90;;;;;;5030385;28;20170;-69
2023/05/05 05:47:54;;;;;;;15.75;4.38;;;12.80;99.90;;;;;;5030293;28;20170;-70
2023/05/05 05:50:20;;;;;;;13.00;4.10;;;12.80;99.90;;;;;;5030609;28;20170;-69
2023/05/05 05:52:45;;;;;;;13.75;3.90;;;12.80;99.90;;;;;;5031340;28;20169;-70
2023/05/05 05:55:11;;;;;;;13.18;4.10;;;12.80;99.90;;;;;;4997896;28;20173;-70
2023/05/05 05:57:37;;;;;;;12.32;3.88;;;12.80;99.90;;;;;;5010986;28;20171;-69
2023/05/05 06:00:03;;;;;;;20.77;4.07;;;12.90;99.90;;;;;;5002880;28;20221;-69
2023/05/05 06:02:28;;;;;;;12.90;4.40;;;12.90;99.90;;;;;;5030438;28;20166;-69
2023/05/05 06:04:54;;;;;;;12.10;4.13;;;12.90;99.90;;;;;;5029889;28;20220;-69
2023/05/05 06:07:20;;;;;;;15.03;3.80;;;12.90;99.90;;;;;;5030726;28;20174;-70
2023/05/05 06:09:45;;;;;;;10.85;2.97;;;12.90;99.90;;;;;;5030308;28;20177;-70
2023/05/05 06:12:11;;;;;;;12.75;3.72;;;11.10;99.90;;;;;;5030056;28;20166;-70
2023/05/05 06:14:36;;;;;;;13.33;3.60;;;12.80;99.90;;;;;;5012289;28;20585;-70
2023/05/05 06:17:02;;;;;;;18.05;3.67;;;12.80;99.90;;;;;;5030133;28;20168;-70
2023/05/05 06:19:28;;;;;;;11.90;3.07;;;12.90;99.90;;;;;;5030810;28;20259;-69
2023/05/05 06:21:54;;;;;;;12.60;3.63;;;12.90;99.90;;;;;;5016192;28;20282;-69
2023/05/05 06:24:19;;;;;;;16.60;3.47;;;12.90;99.90;;;;;;5016688;28;20176;-69
2023/05/05 06:26:45;;;;;;;19.33;3.80;;;12.90;99.90;;;;;;5033396;28;20780;-70
2023/05/05 06:29:10;;;;;;;13.07;3.20;;;13.00;99.90;;;;;;5033188;28;20189;-72
2023/05/05 06:31:36;;;;;;;18.70;4.30;;;12.90;99.90;;;;;;5033119;28;20174;-70
2023/05/05 06:34:01;;;;;;;16.73;3.80;;;13.00;99.90;;;;;;5034124;28;20637;-66
2023/05/05 06:36:27;;;;;;;10.73;3.63;;;13.00;99.90;;;;;;5033144;28;20227;-65
2023/05/05 06:38:53;;;;;;;14.03;3.70;;;13.10;99.90;;;;;;5032688;28;20660;-66
2023/05/05 06:41:18;;;;;;;13.67;3.70;;;13.10;99.90;;;;;;5033454;28;20174;-65
2023/05/05 06:43:44;;;;;;;12.43;4.50;;;13.20;99.90;;;;;;5033263;28;20182;-65
2023/05/05 06:46:10;;;;;;;11.43;4.10;;;13.20;99.90;;;;;;5034246;28;20178;-66
2023/05/05 06:48:35;;;;;;;15.40;3.90;;;13.30;99.90;;;;;;5033274;28;20185;-66
2023/05/05 06:51:01;;;;;;;11.82;3.88;;;13.40;99.90;;;;;;5033525;28;20190;-66
2023/05/05 06:53:27;;;;;;;15.82;3.65;;;;;;;;;;5033185;28;20178;-66
2023/05/05 06:55:53;;;;;;;10.95;3.90;;;13.50;99.90;;;;;;5014722;28;20232;-68
2023/05/05 06:58:20;;;;;;;10.48;3.75;;;13.60;99.90;;;;;;5031834;28;20224;-68
2023/05/05 07:00:46;;;;;;;12.13;3.77;;;13.70;99.90;;;;;;5033172;28;20201;-67
2023/05/05 07:03:11;;;;;;;8.38;3.00;;;13.80;99.90;;;;;;5033428;28;20232;-67
2023/05/05 07:05:37;;;;;;;12.18;3.35;;;13.90;99.90;;;;;;5033293;28;20543;-67
2023/05/05 07:08:03;;;;;;;10.27;3.15;;;13.80;99.90;;;;;;5033440;28;20166;-67
2023/05/05 07:10:30;;;;;;;7.47;2.67;;;13.80;99.90;;;;;;5033109;28;20602;-68
2023/05/05 07:12:55;;;;;;;12.32;2.80;;;13.90;99.90;;;;;;5032415;28;20174;-68
2023/05/05 07:15:21;;;;;;;12.07;2.92;;;13.80;99.90;;;;;;5032518;28;20232;-69
2023/05/05 07:17:47;;;;;;;5.88;2.13;;;13.90;99.90;;;;;;5033233;28;20180;-67
2023/05/05 07:20:12;;;;;;;6.75;2.15;;;13.80;99.90;;;;;;5033172;28;20214;-68
2023/05/05 07:22:38;;;;;;;9.05;1.95;;;13.80;99.90;;;;;;5033558;28;20240;-68
2023/05/05 07:25:04;;;;;;;9.02;2.10;;;13.70;99.90;;;;;;5032465;28;20218;-67
2023/05/05 07:27:31;;;;;;;8.45;1.90;;;13.70;99.90;;;;;;5032547;28;20181;-66
2023/05/05 07:29:57;;;;;;;8.45;2.70;;;13.70;99.90;;;;;;5033268;28;20257;-67
2023/05/05 07:32:23;;;;;;;9.77;2.25;;;13.80;99.90;;;;;;5031055;28;20268;-66
2023/05/05 07:34:49;;;;;;;10.32;2.17;;;13.80;99.90;;;;;;5032161;28;20200;-66
2023/05/05 07:37:14;;;;;;;8.30;2.33;;;13.80;99.90;;;;;;5032753;28;20617;-66
2023/05/05 07:39:40;;;;;;;7.45;1.85;;;14.00;99.90;;;;;;5032330;28;20210;-66
2023/05/05 07:42:06;;;;;;;6.88;1.80;;;14.00;99.90;;;;;;5032425;28;20170;-65
2023/05/05 07:44:32;;;;;;;8.05;1.70;;;14.00;99.90;;;;;;5031738;28;20666;-66
2023/05/05 07:46:58;;;;;;;8.15;1.63;;;14.00;99.90;;;;;;5032416;28;20170;-66
2023/05/05 07:49:24;;;;;;;9.63;1.65;;;14.00;99.90;;;;;;5032030;28;20648;-66
2023/05/05 07:51:49;;;;;;;9.13;1.60;;;14.10;99.90;;;;;;5032718;28;20166;-66
2023/05/05 07:54:16;;;;;;;9.27;2.00;;;14.10;99.90;;;;;;5031500;28;20589;-65
2023/05/05 07:56:42;;;;;;;6.72;1.70;;;14.10;99.90;;;;;;5031164;28;20198;-65
2023/05/05 07:59:08;;;;;;;14.45;1.85;;;14.00;99.90;;;;;;5031617;28;20213;-65
2023/05/05 08:01:34;;;;;;;10.60;1.73;;;;;;;;;;5030843;28;20166;-65
2023/05/05 08:03:59;;;;;;;5.50;1.30;;;14.20;99.90;;;;;;5031665;28;20212;-65
2023/05/05 08:06:26;;;;;;;6.63;1.70;;;14.20;99.90;;;;;;5031344;28;20162;-66
2023/05/05 08:08:52;;;;;;;6.80;1.67;;;14.30;99.90;;;;;;5032227;28;20240;-66
2023/05/05 08:11:19;;;;;;;7.30;1.58;;;14.30;99.90;;;;;;5031222;28;20839;-66
2023/05/05 08:13:45;;;;;;;6.57;1.50;;;14.40;99.90;;;;;;5031875;28;20681;-65
2023/05/05 08:16:11;;;;;;;8.70;1.23;;;14.40;99.90;;;;;;5032468;28;20182;-65
2023/05/05 08:18:37;;;;;;;7.43;1.67;;;14.40;99.90;;;;;;5031376;28;20198;-65
2023/05/05 08:21:04;;;;;;;10.68;1.77;;;14.50;99.90;;;;;;5031717;28;20185;-64
2023/05/05 08:23:30;;;;;;;9.65;1.77;;;14.60;99.90;;;;;;5032122;28;20182;-65
2023/05/05 08:25:56;;;;;;;8.20;1.60;;;14.90;99.90;;;;;;5031667;28;20182;-64
2023/05/05 08:28:24;;;;;;;10.77;2.20;;;15.00;99.90;;;;;;5031463;28;20165;-64
2023/05/05 08:30:50;;;;;;;9.10;1.42;;;15.10;99.90;;;;;;5014435;28;20177;-64
2023/05/05 08:33:15;;;;;;;6.85;1.67;;;15.60;99.90;;;;;;5031511;28;20181;-64
2023/05/05 08:35:42;;;;;;;7.10;1.35;;;15.50;99.90;;;;;;5030592;28;20209;-64
2023/05/05 08:38:07;;;;;;;10.18;1.60;;;15.50;99.90;;;;;;5029750;28;20174;-64
2023/05/05 08:40:36;;;;;;;11.95;1.85;;;15.70;99.90;;;;;;5030798;28;20513;-65
2023/05/05 08:43:02;;;;;;;10.85;1.70;;;15.40;99.90;;;;;;5031746;28;20165;-65
2023/05/05 08:45:28;;;;;;;12.32;1.65;;;15.40;99.90;;;;;;5030749;28;20227;-65
2023/05/05 08:47:56;;;;;;;6.25;1.38;;;17.00;99.90;;;;;;5030157;28;20185;-65
2023/05/05 08:50:27;;;;;;;10.73;2.38;;;15.90;99.90;;;;;;4992181;28;20170;-66
2023/05/05 08:53:09;;;;;;;9.45;1.92;;;16.20;99.90;;;;;;5017173;28;20647;-65
2023/05/05 08:55:43;;;;;;;7.97;1.23;;;17.00;99.90;;;;;;5012889;28;20184;-65
2023/05/05 08:58:09;;;;;;;7.80;1.60;;;16.80;99.90;;;;;;4997564;28;20191;-65
2023/05/05 09:00:35;;;;;;;6.90;1.45;;;16.50;99.90;;;;;;5030912;28;20182;-65
2023/05/05 09:03:01;;;;;;;11.70;1.77;;;16.90;99.90;;;;;;5031701;28;20257;-65
2023/05/05 09:05:27;;;;;;;12.35;2.30;;;16.70;99.90;;;;;;5031647;28;20272;-64
2023/05/05 09:07:53;;;;;;;15.88;2.00;;;16.60;99.90;;;;;;5032134;28;20718;-64
2023/05/05 09:10:19;;;;;;;5.30;1.25;;;16.30;99.90;;;;;;5031815;28;20691;-65
2023/05/05 09:12:45;;;;;;;11.38;2.08;;;16.10;99.90;;;;;;5031606;28;20193;-65
2023/05/05 09:15:12;;;;;;;9.90;1.50;;;15.90;99.90;;;;;;5031336;28;20205;-66
2023/05/05 09:17:39;;;;;;;10.52;1.65;;;15.70;99.90;;;;;;5030541;28;20242;-65
2023/05/05 09:20:07;;;;;;;10.27;1.90;;;15.60;99.90;;;;;;5030536;28;20210;-65
2023/05/05 09:22:43;;;;;;;9.93;1.92;;;15.70;99.90;;;;;;5029518;28;20209;-65
2023/05/05 09:25:11;;;;;;;13.48;2.22;;;15.60;99.90;;;;;;5030650;28;20174;-65
2023/05/05 09:27:41;;;;;;;12.13;2.05;;;15.50;99.90;;;;;;5013010;28;20535;-66
2023/05/05 09:30:13;;;;;;;10.60;1.88;;;15.50;99.90;;;;;;5029855;28;20173;-67
2023/05/05 09:32:56;;;;;;;11.00;1.77;;;15.70;99.90;;;;;;5030723;28;20645;-66
2023/05/05 09:35:22;;;;;;;9.57;2.38;;;15.90;99.90;;;;;;5030098;28;20227;-67
2023/05/05 09:37:48;;;;;;;13.38;2.17;;;;;;;;;;5030579;28;20178;-65
2023/05/05 09:40:16;;;;;;;11.35;2.28;;;16.10;99.90;;;;;;5029881;28;20271;-65
2023/05/05 09:42:43;;;;;;;10.02;2.50;;;16.30;99.90;;;;;;5029646;28;20178;-66
2023/05/05 09:45:18;;;;;;;14.55;2.50;;;16.50;99.90;;;;;;5010466;28;20590;-66
2023/05/05 09:47:44;;;;;;;16.48;3.30;;;16.90;99.90;;;;;;5029989;28;20280;-66
2023/05/05 09:50:14;;;;;;;7.57;1.98;;;17.10;99.90;;;;;;5031145;28;20201;-66
2023/05/05 09:52:41;;;;;;;12.20;2.00;;;17.60;99.90;;;;;;5031027;28;20170;-65
2023/05/05 09:55:16;;;;;;;12.80;2.08;;;17.50;99.90;;;;;;5012914;28;20254;-66
2023/05/05 09:57:42;;;;;;;11.30;2.67;;;17.50;99.90;;;;;;5030955;28;20169;-66
2023/05/05 10:00:10;;;;;;;12.43;2.17;;;17.40;99.90;;;;;;5031007;28;20286;-66
2023/05/05 10:02:38;;;;;;;7.32;1.88;;;17.80;99.90;;;;;;5030825;28;20285;-66
2023/05/05 10:05:15;;;;;;;8.30;2.05;;;17.60;99.90;;;;;;5030866;28;20178;-67
2023/05/05 10:07:43;;;;;;;9.25;1.60;;;17.60;99.90;;;;;;5030736;28;20228;-66
2023/05/05 10:10:17;;;;;;;9.45;1.83;;;17.60;99.90;;;;;;5029770;28;20178;-66
2023/05/05 10:12:44;;;;;;;17.02;2.63;;;17.20;99.90;;;;;;5030424;28;20256;-66
2023/05/05 10:15:11;;;;;;;12.48;2.00;;;17.10;99.90;;;;;;5030366;28;20720;-67
2023/05/05 10:17:47;;;;;;;11.70;2.15;;;16.90;99.90;;;;;;5030422;28;20230;-66
2023/05/05 10:20:14;;;;;;;9.40;2.17;;;17.00;99.90;;;;;;5030348;28;20207;-66
2023/05/05 10:22:45;;;;;;;11.77;2.40;;;17.20;99.90;;;;;;5030104;28;20230;-66
2023/05/05 10:25:14;;;;;;;9.40;2.20;;;17.50;99.90;;;;;;5030786;28;20198;-66
2023/05/05 10:27:45;;;;;;;7.97;1.85;;;17.70;99.90;;;;;;5030701;28;20178;-66
2023/05/05 10:30:23;;;;;;;13.70;1.73;;;17.40;99.90;;;;;;5030728;28;20182;-68
2023/05/05 10:33:18;;;;;;;15.98;2.35;;;17.80;99.90;;;;;;5030603;28;20205;-66
2023/05/05 10:35:48;;;;;;;8.10;1.70;;;18.60;99.90;;;;;;5029431;28;20185;-67
2023/05/05 10:38:15;;;;;;;9.00;1.65;;;18.70;99.90;;;;;;5030542;28;20342;-66
2023/05/05 10:40:47;;;;;;;8.68;1.30;;;18.40;99.90;;;;;;5030605;28;20210;-66
2023/05/05 10:43:13;;;;;;;10.07;1.83;;;18.90;99.90;;;;;;5030307;28;20175;-66
2023/05/05 10:45:40;;;;;;;6.93;1.33;;;18.80;99.90;;;;;;5030492;28;20243;-66
2023/05/05 10:48:13;;;;;;;10.60;2.15;;;19.00;99.90;;;;;;5030727;28;20170;-66
2023/05/05 10:50:48;;;;;;;5.15;1.20;;;18.80;99.90;;;;;;5030445;28;20227;-65
2023/05/05 10:53:22;;;;;;;10.68;1.88;;;18.40;99.90;;;;;;5030444;28;20173;-65
2023/05/05 10:55:55;;;;;;;10.73;1.40;;;18.10;99.90;;;;;;5010496;28;20158;-65
2023/05/05 10:58:34;;;;;;;10.63;1.90;;;17.70;99.90;;;;;;5010713;28;20262;-65
2023/05/05 11:01:00;;;;;;;11.93;2.03;;;17.00;99.90;;;;;;5010611;28;20229;-65
2023/05/05 11:03:25;;;;;;;16.30;2.40;;;17.20;99.90;;;;;;5011050;28;20178;-66
2023/05/05 11:06:03;;;;;;;7.97;1.77;;;17.80;99.90;;;;;;5010579;28;20634;-66
2023/05/05 11:08:30;;;;;;;13.65;2.00;;;18.70;99.90;;;;;;4996630;28;20175;-66
2023/05/05 11:10:55;;;;;;;17.33;2.60;;;19.00;99.90;;;;;;5014162;28;20235;-67
2023/05/05 11:13:21;;;;;;;12.82;2.00;;;19.60;99.90;;;;;;5014389;28;20610;-66
2023/05/05 11:15:49;;;;;;;12.27;2.25;;;20.00;1.00;;;;;;5014254;28;20666;-66
2023/05/05 11:18:34;;;;;;;10.77;2.05;;;20.30;1.00;;;;;;5014121;28;20175;-66
2023/05/05 11:21:02;;;;;;;13.13;2.53;;;20.70;99.90;;;;;;5013917;28;20198;-66
2023/05/05 11:23:29;;;;;;;12.55;2.25;;;20.90;99.90;;;;;;5013887;28;20211;-66
2023/05/05 11:25:56;;;;;;;12.73;2.40;;;21.00;99.90;;;;;;5013853;28;20182;-67
2023/05/05 11:28:24;;;;;;;11.93;2.45;;;20.40;99.90;;;;;;5013901;28;20175;-66
2023/05/05 11:30:56;;;;;;;23.45;3.47;;;20.50;99.90;;;;;;5013876;28;20202;-67
2023/05/05 11:33:38;;;;;;;12.77;2.25;;;19.90;99.90;;;;;;5013728;28;20247;-67
2023/05/05 11:36:08;;;;;;;14.30;2.67;;;19.20;1.00;;;;;;5013694;28;20166;-66
2023/05/05 11:38:36;;;;;;;14.77;2.42;;;18.90;1.00;;;;;;5013629;28;20210;-67
2023/05/05 11:41:16;;;;;;;17.27;3.00;;;18.30;99.90;;;;;;5013782;28;20182;-67
2023/05/05 11:43:42;;;;;;;16.70;2.80;;;18.20;1.00;;;;;;5013570;28;20218;-65
2023/05/05 11:46:15;;;;;;;18.05;3.10;;;18.80;99.90;;;;;;5013481;28;20194;-66
2023/05/05 11:48:48;;;;;;;14.23;2.33;;;19.10;39.80;;;;;;5013688;28;20209;-66
2023/05/05 11:51:15;;;;;;;11.55;2.10;;;18.80;1.00;;;;;;5013497;28;20167;-66
2023/05/05 11:53:45;;;;;;;12.63;2.45;;;18.80;23.10;;;;;;5016170;28;20174;-66
2023/05/05 11:56:17;;;;;;;16.17;2.53;;;18.50;10.70;;;;;;5033103;28;20174;-66
2023/05/05 11:58:44;;;;;;;17.02;2.90;;;18.10;1.00;;;;;;5033081;28;20209;-65
2023/05/05 12:01:11;;;;;;;12.63;2.53;;;17.80;1.00;;;;;;5033062;28;20197;-66
2023/05/05 12:03:38;;;;;;;14.10;2.75;;;17.70;1.00;;;;;;5032907;28;20177;-66
2023/05/05 12:06:05;;;;;;;18.13;2.72;;;17.60;99.90;;;;;;5032905;28;20178;-66
2023/05/05 12:08:38;;;;;;;76.90;6.22;;;17.70;1.00;;;;;;5032814;28;20276;-65
2023/05/05 12:11:07;;;;;;;45.90;5.28;;;17.80;1.00;;;;;;5032926;28;20629;-65
2023/05/05 12:13:33;;;;;;;22.73;2.97;;;17.80;1.00;;;;;;5032850;28;20204;-65
2023/05/05 12:16:14;;;;;;;14.45;1.95;;;17.70;48.20;;;;;;5032827;28;20672;-66
2023/05/05 12:18:41;;;;;;;18.63;3.08;;;18.00;99.90;;;;;;5032383;28;20235;-66
2023/05/05 12:21:33;;;;;;;14.30;2.28;;;17.90;99.90;;;;;;5032552;28;20174;-66
2023/05/05 12:23:59;;;;;;;14.40;2.78;;;18.30;99.90;;;;;;5030570;28;20237;-66
2023/05/05 12:26:27;;;;;;;16.98;3.22;;;18.40;1.00;;;;;;5032478;28;20175;-66
2023/05/05 12:28:59;;;;;;;15.15;2.35;;;18.60;99.90;;;;;;5032468;28;20176;-66
2023/05/05 12:31:38;;;;;;;15.70;2.20;;;19.30;1.00;;;;;;5032434;28;20204;-67
2023/05/05 12:34:05;;;;;;;20.83;3.00;;;20.60;1.00;;;;;;5032366;28;20216;-67
2023/05/05 12:36:32;;;;;;;12.30;2.33;;;20.90;1.00;;;;;;5032393;28;20213;-67
2023/05/05 12:38:58;;;;;;;14.50;2.38;;;21.00;1.00;;;;;;5032110;28;20241;-67
2023/05/05 12:41:24;;;;;;;13.27;3.10;;;21.60;99.90;;;;;;5032076;28;20198;-66
2023/05/05 12:43:57;;;;;;;13.88;2.55;;;21.10;1.00;;;;;;5032135;28;20236;-66
2023/05/05 12:46:23;;;;;;;14.10;2.33;;;21.20;1.00;;;;;;5032378;28;20181;-67